sensor_id;sensor_type;location;lat;lon;timestamp;P1;P2;P0
63305;PMS5003;50735;52.060;1.248;2024-02-16T00:00:59;16;16;
63305;PMS5003;50735;52.060;1.248;2024-02-16T00:03:32;26;14;
63305;PMS5003;50735;52.060;1.248;2024-02-16T00:06:04;15;14;
63305;PMS5003;50735;52.060;1.248;2024-02-16T00:08:36;14;12;
63305;PMS5003;50735;52.060;1.248;2024-02-16T00:11:08;17;14;
63305;PMS5003;50735;52.060;1.248;2024-02-16T00:13:40;16;14;
63305;PMS5003;50735;52.060;1.248;2024-02-16T00:16:12;12;12;
63305;PMS5003;50735;52.060;1.248;2024-02-16T00:18:44;13;12;
63305;PMS5003;50735;52.060;1.248;2024-02-16T00:21:15;13;13;
63305;PMS5003;50735;52.060;1.248;2024-02-16T00:23:47;15;13;
63305;PMS5003;50735;52.060;1.248;2024-02-16T00:26:19;17;12;
63305;PMS5003;50735;52.060;1.248;2024-02-16T00:28:51;12;12;
63305;PMS5003;50735;52.060;1.248;2024-02-16T00:31:23;15;13;
63305;PMS5003;50735;52.060;1.248;2024-02-16T00:33:55;11;11;
63305;PMS5003;50735;52.060;1.248;2024-02-16T00:36:27;12;12;
63305;PMS5003;50735;52.060;1.248;2024-02-16T00:38:58;15;13;
63305;PMS5003;50735;52.060;1.248;2024-02-16T00:41:30;16;11;
63305;PMS5003;50735;52.060;1.248;2024-02-16T00:44:02;12;11;
63305;PMS5003;50735;52.060;1.248;2024-02-16T00:46:35;13;13;
63305;PMS5003;50735;52.060;1.248;2024-02-16T00:49:07;15;12;
63305;PMS5003;50735;52.060;1.248;2024-02-16T00:51:40;16;11;
63305;PMS5003;50735;52.060;1.248;2024-02-16T00:54:12;10;10;
63305;PMS5003;50735;52.060;1.248;2024-02-16T00:56:44;14;14;
63305;PMS5003;50735;52.060;1.248;2024-02-16T00:59:15;17;14;
63305;PMS5003;50735;52.060;1.248;2024-02-16T01:01:47;15;10;
63305;PMS5003;50735;52.060;1.248;2024-02-16T01:04:19;11;11;
63305;PMS5003;50735;52.060;1.248;2024-02-16T01:06:51;17;16;
63305;PMS5003;50735;52.060;1.248;2024-02-16T01:09:22;16;15;
63305;PMS5003;50735;52.060;1.248;2024-02-16T01:11:54;16;11;
63305;PMS5003;50735;52.060;1.248;2024-02-16T01:14:26;15;15;
63305;PMS5003;50735;52.060;1.248;2024-02-16T01:16:58;20;14;
63305;PMS5003;50735;52.060;1.248;2024-02-16T01:19:30;21;12;
63305;PMS5003;50735;52.060;1.248;2024-02-16T01:22:01;16;15;
63305;PMS5003;50735;52.060;1.248;2024-02-16T01:24:34;15;13;
63305;PMS5003;50735;52.060;1.248;2024-02-16T01:27:06;16;13;
63305;PMS5003;50735;52.060;1.248;2024-02-16T01:29:37;13;13;
63305;PMS5003;50735;52.060;1.248;2024-02-16T01:32:09;16;11;
63305;PMS5003;50735;52.060;1.248;2024-02-16T01:34:41;17;12;
63305;PMS5003;50735;52.060;1.248;2024-02-16T01:37:13;26;14;
63305;PMS5003;50735;52.060;1.248;2024-02-16T01:39:45;15;13;
63305;PMS5003;50735;52.060;1.248;2024-02-16T01:42:16;17;12;
63305;PMS5003;50735;52.060;1.248;2024-02-16T01:44:48;17;13;
63305;PMS5003;50735;52.060;1.248;2024-02-16T01:47:20;13;13;
63305;PMS5003;50735;52.060;1.248;2024-02-16T01:49:51;14;14;
63305;PMS5003;50735;52.060;1.248;2024-02-16T01:52:23;15;15;
63305;PMS5003;50735;52.060;1.248;2024-02-16T01:54:55;14;12;
63305;PMS5003;50735;52.060;1.248;2024-02-16T01:57:27;17;15;
63305;PMS5003;50735;52.060;1.248;2024-02-16T01:59:58;16;16;
63305;PMS5003;50735;52.060;1.248;2024-02-16T02:02:30;12;12;
63305;PMS5003;50735;52.060;1.248;2024-02-16T02:05:02;14;13;
63305;PMS5003;50735;52.060;1.248;2024-02-16T02:07:35;15;15;
63305;PMS5003;50735;52.060;1.248;2024-02-16T02:10:08;19;15;
63305;PMS5003;50735;52.060;1.248;2024-02-16T02:12:40;15;13;
63305;PMS5003;50735;52.060;1.248;2024-02-16T02:15:12;18;15;
63305;PMS5003;50735;52.060;1.248;2024-02-16T02:17:44;14;12;
63305;PMS5003;50735;52.060;1.248;2024-02-16T02:20:16;20;15;
63305;PMS5003;50735;52.060;1.248;2024-02-16T02:22:48;14;13;
63305;PMS5003;50735;52.060;1.248;2024-02-16T02:25:20;14;14;
63305;PMS5003;50735;52.060;1.248;2024-02-16T02:27:52;20;18;
63305;PMS5003;50735;52.060;1.248;2024-02-16T02:30:24;16;15;
63305;PMS5003;50735;52.060;1.248;2024-02-16T02:32:56;18;15;
63305;PMS5003;50735;52.060;1.248;2024-02-16T02:35:27;18;14;
63305;PMS5003;50735;52.060;1.248;2024-02-16T02:37:59;13;12;
63305;PMS5003;50735;52.060;1.248;2024-02-16T02:40:31;16;16;
63305;PMS5003;50735;52.060;1.248;2024-02-16T02:43:03;17;15;
63305;PMS5003;50735;52.060;1.248;2024-02-16T02:45:35;12;12;
63305;PMS5003;50735;52.060;1.248;2024-02-16T02:48:07;18;15;
63305;PMS5003;50735;52.060;1.248;2024-02-16T02:50:39;18;15;
63305;PMS5003;50735;52.060;1.248;2024-02-16T02:53:11;18;15;
63305;PMS5003;50735;52.060;1.248;2024-02-16T02:55:43;25;16;
63305;PMS5003;50735;52.060;1.248;2024-02-16T02:58:15;17;15;
63305;PMS5003;50735;52.060;1.248;2024-02-16T03:00:47;19;15;
63305;PMS5003;50735;52.060;1.248;2024-02-16T03:03:18;16;14;
63305;PMS5003;50735;52.060;1.248;2024-02-16T03:05:51;19;15;
63305;PMS5003;50735;52.060;1.248;2024-02-16T03:08:23;27;16;
63305;PMS5003;50735;52.060;1.248;2024-02-16T03:10:54;27;17;
63305;PMS5003;50735;52.060;1.248;2024-02-16T03:13:26;17;14;
63305;PMS5003;50735;52.060;1.248;2024-02-16T03:15:58;23;16;
63305;PMS5003;50735;52.060;1.248;2024-02-16T03:18:31;16;16;
63305;PMS5003;50735;52.060;1.248;2024-02-16T03:21:04;15;15;
63305;PMS5003;50735;52.060;1.248;2024-02-16T03:23:35;23;19;
63305;PMS5003;50735;52.060;1.248;2024-02-16T03:26:13;16;15;
63305;PMS5003;50735;52.060;1.248;2024-02-16T03:28:45;24;14;
63305;PMS5003;50735;52.060;1.248;2024-02-16T03:31:18;20;18;
63305;PMS5003;50735;52.060;1.248;2024-02-16T03:33:51;22;16;
63305;PMS5003;50735;52.060;1.248;2024-02-16T03:36:23;27;17;
63305;PMS5003;50735;52.060;1.248;2024-02-16T03:38:55;33;15;
63305;PMS5003;50735;52.060;1.248;2024-02-16T03:41:27;20;15;
63305;PMS5003;50735;52.060;1.248;2024-02-16T03:44:00;17;14;
63305;PMS5003;50735;52.060;1.248;2024-02-16T03:46:32;21;16;
63305;PMS5003;50735;52.060;1.248;2024-02-16T03:49:04;16;16;
63305;PMS5003;50735;52.060;1.248;2024-02-16T03:51:36;31;16;
63305;PMS5003;50735;52.060;1.248;2024-02-16T03:54:08;18;17;
63305;PMS5003;50735;52.060;1.248;2024-02-16T03:56:40;17;17;
63305;PMS5003;50735;52.060;1.248;2024-02-16T03:59:11;18;18;
63305;PMS5003;50735;52.060;1.248;2024-02-16T04:01:44;20;20;
63305;PMS5003;50735;52.060;1.248;2024-02-16T04:04:15;19;19;
63305;PMS5003;50735;52.060;1.248;2024-02-16T04:06:47;26;17;
63305;PMS5003;50735;52.060;1.248;2024-02-16T04:09:19;16;15;
63305;PMS5003;50735;52.060;1.248;2024-02-16T04:11:51;21;16;
63305;PMS5003;50735;52.060;1.248;2024-02-16T04:14:23;28;19;
63305;PMS5003;50735;52.060;1.248;2024-02-16T04:16:55;31;18;
63305;PMS5003;50735;52.060;1.248;2024-02-16T04:19:26;21;20;
63305;PMS5003;50735;52.060;1.248;2024-02-16T04:21:59;20;18;
63305;PMS5003;50735;52.060;1.248;2024-02-16T04:24:30;30;18;
63305;PMS5003;50735;52.060;1.248;2024-02-16T04:27:02;25;22;
63305;PMS5003;50735;52.060;1.248;2024-02-16T04:29:34;16;16;
63305;PMS5003;50735;52.060;1.248;2024-02-16T04:32:06;27;21;
63305;PMS5003;50735;52.060;1.248;2024-02-16T04:34:38;33;24;
63305;PMS5003;50735;52.060;1.248;2024-02-16T04:37:10;28;22;
63305;PMS5003;50735;52.060;1.248;2024-02-16T04:39:42;23;17;
63305;PMS5003;50735;52.060;1.248;2024-02-16T04:42:13;23;20;
63305;PMS5003;50735;52.060;1.248;2024-02-16T04:44:46;22;22;
63305;PMS5003;50735;52.060;1.248;2024-02-16T04:47:17;19;18;
63305;PMS5003;50735;52.060;1.248;2024-02-16T04:49:49;32;23;
63305;PMS5003;50735;52.060;1.248;2024-02-16T04:52:21;21;20;
63305;PMS5003;50735;52.060;1.248;2024-02-16T04:54:53;26;23;
63305;PMS5003;50735;52.060;1.248;2024-02-16T04:57:24;22;20;
63305;PMS5003;50735;52.060;1.248;2024-02-16T04:59:56;20;20;
63305;PMS5003;50735;52.060;1.248;2024-02-16T05:02:28;30;26;
63305;PMS5003;50735;52.060;1.248;2024-02-16T05:05:00;30;19;
63305;PMS5003;50735;52.060;1.248;2024-02-16T05:07:32;35;20;
63305;PMS5003;50735;52.060;1.248;2024-02-16T05:10:07;24;19;
63305;PMS5003;50735;52.060;1.248;2024-02-16T05:12:40;29;21;
63305;PMS5003;50735;52.060;1.248;2024-02-16T05:15:12;19;19;
63305;PMS5003;50735;52.060;1.248;2024-02-16T05:17:46;22;18;
63305;PMS5003;50735;52.060;1.248;2024-02-16T05:20:19;32;20;
63305;PMS5003;50735;52.060;1.248;2024-02-16T05:22:50;28;20;
63305;PMS5003;50735;52.060;1.248;2024-02-16T05:25:22;21;20;
63305;PMS5003;50735;52.060;1.248;2024-02-16T05:27:54;26;18;
63305;PMS5003;50735;52.060;1.248;2024-02-16T05:30:26;25;23;
63305;PMS5003;50735;52.060;1.248;2024-02-16T05:32:58;21;20;
63305;PMS5003;50735;52.060;1.248;2024-02-16T05:35:29;24;20;
63305;PMS5003;50735;52.060;1.248;2024-02-16T05:38:02;26;21;
63305;PMS5003;50735;52.060;1.248;2024-02-16T05:40:33;17;17;
63305;PMS5003;50735;52.060;1.248;2024-02-16T05:43:05;16;16;
63305;PMS5003;50735;52.060;1.248;2024-02-16T05:45:37;17;17;
63305;PMS5003;50735;52.060;1.248;2024-02-16T05:48:09;16;14;
63305;PMS5003;50735;52.060;1.248;2024-02-16T05:50:40;18;17;
63305;PMS5003;50735;52.060;1.248;2024-02-16T05:53:12;15;13;
63305;PMS5003;50735;52.060;1.248;2024-02-16T05:55:44;14;14;
63305;PMS5003;50735;52.060;1.248;2024-02-16T05:58:16;13;13;
63305;PMS5003;50735;52.060;1.248;2024-02-16T06:00:47;12;12;
63305;PMS5003;50735;52.060;1.248;2024-02-16T06:03:19;11;11;
63305;PMS5003;50735;52.060;1.248;2024-02-16T06:05:52;9;9;
63305;PMS5003;50735;52.060;1.248;2024-02-16T06:08:23;10;10;
63305;PMS5003;50735;52.060;1.248;2024-02-16T06:10:55;14;13;
63305;PMS5003;50735;52.060;1.248;2024-02-16T06:13:27;10;10;
63305;PMS5003;50735;52.060;1.248;2024-02-16T06:15:59;10;10;
63305;PMS5003;50735;52.060;1.248;2024-02-16T06:18:30;12;10;
63305;PMS5003;50735;52.060;1.248;2024-02-16T06:21:02;12;8;
63305;PMS5003;50735;52.060;1.248;2024-02-16T06:23:35;11;11;
63305;PMS5003;50735;52.060;1.248;2024-02-16T06:26:07;10;10;
63305;PMS5003;50735;52.060;1.248;2024-02-16T06:28:39;12;10;
63305;PMS5003;50735;52.060;1.248;2024-02-16T06:31:10;10;9;
63305;PMS5003;50735;52.060;1.248;2024-02-16T06:33:44;10;10;
63305;PMS5003;50735;52.060;1.248;2024-02-16T06:36:16;9;9;
63305;PMS5003;50735;52.060;1.248;2024-02-16T06:38:48;8;8;
63305;PMS5003;50735;52.060;1.248;2024-02-16T06:41:20;11;11;
63305;PMS5003;50735;52.060;1.248;2024-02-16T06:43:52;11;10;
63305;PMS5003;50735;52.060;1.248;2024-02-16T06:46:24;10;9;
63305;PMS5003;50735;52.060;1.248;2024-02-16T06:48:55;20;9;
63305;PMS5003;50735;52.060;1.248;2024-02-16T06:51:27;13;11;
63305;PMS5003;50735;52.060;1.248;2024-02-16T06:53:59;15;8;
63305;PMS5003;50735;52.060;1.248;2024-02-16T06:56:31;12;11;
63305;PMS5003;50735;52.060;1.248;2024-02-16T06:59:03;13;10;
63305;PMS5003;50735;52.060;1.248;2024-02-16T07:01:34;10;10;
63305;PMS5003;50735;52.060;1.248;2024-02-16T07:04:06;9;9;
63305;PMS5003;50735;52.060;1.248;2024-02-16T07:06:38;8;8;
63305;PMS5003;50735;52.060;1.248;2024-02-16T07:09:10;12;10;
63305;PMS5003;50735;52.060;1.248;2024-02-16T07:11:42;22;11;
63305;PMS5003;50735;52.060;1.248;2024-02-16T07:14:14;12;12;
63305;PMS5003;50735;52.060;1.248;2024-02-16T07:16:46;14;11;
63305;PMS5003;50735;52.060;1.248;2024-02-16T07:19:18;16;13;
63305;PMS5003;50735;52.060;1.248;2024-02-16T07:21:50;16;16;
63305;PMS5003;50735;52.060;1.248;2024-02-16T07:24:22;15;14;
63305;PMS5003;50735;52.060;1.248;2024-02-16T07:26:54;11;11;
63305;PMS5003;50735;52.060;1.248;2024-02-16T07:29:25;25;14;
63305;PMS5003;50735;52.060;1.248;2024-02-16T07:31:57;15;14;
63305;PMS5003;50735;52.060;1.248;2024-02-16T07:34:29;12;11;
63305;PMS5003;50735;52.060;1.248;2024-02-16T07:37:01;12;12;
63305;PMS5003;50735;52.060;1.248;2024-02-16T07:39:32;10;10;
63305;PMS5003;50735;52.060;1.248;2024-02-16T07:42:04;21;11;
63305;PMS5003;50735;52.060;1.248;2024-02-16T07:44:37;10;9;
63305;PMS5003;50735;52.060;1.248;2024-02-16T07:47:08;9;9;
63305;PMS5003;50735;52.060;1.248;2024-02-16T07:49:40;9;9;
63305;PMS5003;50735;52.060;1.248;2024-02-16T07:52:12;11;11;
63305;PMS5003;50735;52.060;1.248;2024-02-16T07:54:44;10;9;
63305;PMS5003;50735;52.060;1.248;2024-02-16T07:57:16;8;8;
63305;PMS5003;50735;52.060;1.248;2024-02-16T07:59:48;9;8;
63305;PMS5003;50735;52.060;1.248;2024-02-16T08:02:19;7;7;
63305;PMS5003;50735;52.060;1.248;2024-02-16T08:04:51;6;6;
63305;PMS5003;50735;52.060;1.248;2024-02-16T08:07:23;8;8;
63305;PMS5003;50735;52.060;1.248;2024-02-16T08:09:55;10;9;
63305;PMS5003;50735;52.060;1.248;2024-02-16T08:12:27;9;7;
63305;PMS5003;50735;52.060;1.248;2024-02-16T08:14:59;7;6;
63305;PMS5003;50735;52.060;1.248;2024-02-16T08:17:30;9;9;
63305;PMS5003;50735;52.060;1.248;2024-02-16T08:20:02;7;7;
63305;PMS5003;50735;52.060;1.248;2024-02-16T08:22:35;9;7;
63305;PMS5003;50735;52.060;1.248;2024-02-16T08:25:06;9;8;
63305;PMS5003;50735;52.060;1.248;2024-02-16T08:27:39;7;7;
63305;PMS5003;50735;52.060;1.248;2024-02-16T08:30:11;4;4;
63305;PMS5003;50735;52.060;1.248;2024-02-16T08:32:43;11;7;
63305;PMS5003;50735;52.060;1.248;2024-02-16T08:35:15;5;5;
63305;PMS5003;50735;52.060;1.248;2024-02-16T08:37:47;13;10;
63305;PMS5003;50735;52.060;1.248;2024-02-16T08:40:19;11;10;
63305;PMS5003;50735;52.060;1.248;2024-02-16T08:42:50;10;8;
63305;PMS5003;50735;52.060;1.248;2024-02-16T08:45:22;9;8;
63305;PMS5003;50735;52.060;1.248;2024-02-16T08:47:54;10;10;
63305;PMS5003;50735;52.060;1.248;2024-02-16T08:50:26;9;8;
63305;PMS5003;50735;52.060;1.248;2024-02-16T08:52:58;7;6;
63305;PMS5003;50735;52.060;1.248;2024-02-16T08:55:29;9;7;
63305;PMS5003;50735;52.060;1.248;2024-02-16T08:58:01;8;7;
63305;PMS5003;50735;52.060;1.248;2024-02-16T09:00:33;7;7;
63305;PMS5003;50735;52.060;1.248;2024-02-16T09:03:05;5;5;
63305;PMS5003;50735;52.060;1.248;2024-02-16T09:05:36;8;8;
63305;PMS5003;50735;52.060;1.248;2024-02-16T09:08:08;7;6;
63305;PMS5003;50735;52.060;1.248;2024-02-16T09:10:40;8;6;
63305;PMS5003;50735;52.060;1.248;2024-02-16T09:13:12;7;7;
63305;PMS5003;50735;52.060;1.248;2024-02-16T09:15:44;6;5;
63305;PMS5003;50735;52.060;1.248;2024-02-16T09:18:15;5;5;
63305;PMS5003;50735;52.060;1.248;2024-02-16T09:20:47;10;7;
63305;PMS5003;50735;52.060;1.248;2024-02-16T09:23:19;6;4;
63305;PMS5003;50735;52.060;1.248;2024-02-16T09:25:51;8;6;
63305;PMS5003;50735;52.060;1.248;2024-02-16T09:28:23;5;5;
63305;PMS5003;50735;52.060;1.248;2024-02-16T09:30:54;4;4;
63305;PMS5003;50735;52.060;1.248;2024-02-16T09:33:27;4;4;
63305;PMS5003;50735;52.060;1.248;2024-02-16T09:35:59;7;5;
63305;PMS5003;50735;52.060;1.248;2024-02-16T09:38:31;3;3;
63305;PMS5003;50735;52.060;1.248;2024-02-16T09:41:03;4;4;
63305;PMS5003;50735;52.060;1.248;2024-02-16T09:43:34;5;5;
63305;PMS5003;50735;52.060;1.248;2024-02-16T09:46:06;5;4;
63305;PMS5003;50735;52.060;1.248;2024-02-16T09:48:40;5;5;
63305;PMS5003;50735;52.060;1.248;2024-02-16T09:51:12;7;4;
63305;PMS5003;50735;52.060;1.248;2024-02-16T09:53:45;10;6;
63305;PMS5003;50735;52.060;1.248;2024-02-16T09:56:22;3;3;
63305;PMS5003;50735;52.060;1.248;2024-02-16T09:58:55;7;6;
63305;PMS5003;50735;52.060;1.248;2024-02-16T10:01:26;4;4;
63305;PMS5003;50735;52.060;1.248;2024-02-16T10:03:59;2;2;
63305;PMS5003;50735;52.060;1.248;2024-02-16T10:06:45;5;4;
63305;PMS5003;50735;52.060;1.248;2024-02-16T10:09:25;4;4;
63305;PMS5003;50735;52.060;1.248;2024-02-16T10:11:59;4;4;
63305;PMS5003;50735;52.060;1.248;2024-02-16T10:14:32;3;3;
63305;PMS5003;50735;52.060;1.248;2024-02-16T10:17:04;5;3;
63305;PMS5003;50735;52.060;1.248;2024-02-16T10:19:38;6;5;
63305;PMS5003;50735;52.060;1.248;2024-02-16T10:22:09;6;5;
63305;PMS5003;50735;52.060;1.248;2024-02-16T10:24:42;4;2;
63305;PMS5003;50735;52.060;1.248;2024-02-16T10:27:14;4;4;
63305;PMS5003;50735;52.060;1.248;2024-02-16T10:29:47;3;3;
63305;PMS5003;50735;52.060;1.248;2024-02-16T10:32:19;4;2;
63305;PMS5003;50735;52.060;1.248;2024-02-16T10:34:52;4;3;
63305;PMS5003;50735;52.060;1.248;2024-02-16T10:37:25;4;2;
63305;PMS5003;50735;52.060;1.248;2024-02-16T10:39:58;5;2;
63305;PMS5003;50735;52.060;1.248;2024-02-16T10:42:31;4;4;
63305;PMS5003;50735;52.060;1.248;2024-02-16T10:45:08;3;1;
63305;PMS5003;50735;52.060;1.248;2024-02-16T10:47:42;5;2;
63305;PMS5003;50735;52.060;1.248;2024-02-16T10:50:13;3;3;
63305;PMS5003;50735;52.060;1.248;2024-02-16T10:52:45;3;3;
63305;PMS5003;50735;52.060;1.248;2024-02-16T10:55:19;3;1;
63305;PMS5003;50735;52.060;1.248;2024-02-16T10:57:50;2;2;
63305;PMS5003;50735;52.060;1.248;2024-02-16T11:00:22;13;3;
63305;PMS5003;50735;52.060;1.248;2024-02-16T11:02:54;3;3;
63305;PMS5003;50735;52.060;1.248;2024-02-16T11:05:34;6;5;
63305;PMS5003;50735;52.060;1.248;2024-02-16T11:08:11;5;4;
63305;PMS5003;50735;52.060;1.248;2024-02-16T11:11:01;3;3;
63305;PMS5003;50735;52.060;1.248;2024-02-16T11:13:33;5;3;
63305;PMS5003;50735;52.060;1.248;2024-02-16T11:16:07;2;2;
63305;PMS5003;50735;52.060;1.248;2024-02-16T11:18:41;3;3;
63305;PMS5003;50735;52.060;1.248;2024-02-16T11:21:14;7;5;
63305;PMS5003;50735;52.060;1.248;2024-02-16T11:23:46;5;4;
63305;PMS5003;50735;52.060;1.248;2024-02-16T11:26:18;5;2;
63305;PMS5003;50735;52.060;1.248;2024-02-16T11:28:50;3;3;
63305;PMS5003;50735;52.060;1.248;2024-02-16T11:31:22;3;3;
63305;PMS5003;50735;52.060;1.248;2024-02-16T11:33:54;7;3;
63305;PMS5003;50735;52.060;1.248;2024-02-16T11:36:26;6;4;
63305;PMS5003;50735;52.060;1.248;2024-02-16T11:38:58;5;3;
63305;PMS5003;50735;52.060;1.248;2024-02-16T11:41:30;4;4;
63305;PMS5003;50735;52.060;1.248;2024-02-16T11:44:02;3;3;
63305;PMS5003;50735;52.060;1.248;2024-02-16T11:46:34;5;3;
63305;PMS5003;50735;52.060;1.248;2024-02-16T11:49:06;3;3;
63305;PMS5003;50735;52.060;1.248;2024-02-16T11:51:39;6;3;
63305;PMS5003;50735;52.060;1.248;2024-02-16T11:54:11;3;3;
63305;PMS5003;50735;52.060;1.248;2024-02-16T11:56:43;4;1;
63305;PMS5003;50735;52.060;1.248;2024-02-16T11:59:15;2;2;
63305;PMS5003;50735;52.060;1.248;2024-02-16T12:01:48;4;4;
63305;PMS5003;50735;52.060;1.248;2024-02-16T12:04:22;6;5;
63305;PMS5003;50735;52.060;1.248;2024-02-16T12:06:56;3;3;
63305;PMS5003;50735;52.060;1.248;2024-02-16T12:09:28;4;4;
63305;PMS5003;50735;52.060;1.248;2024-02-16T12:12:01;3;3;
63305;PMS5003;50735;52.060;1.248;2024-02-16T12:14:34;6;4;
63305;PMS5003;50735;52.060;1.248;2024-02-16T12:17:06;7;4;
63305;PMS5003;50735;52.060;1.248;2024-02-16T12:19:43;2;2;
63305;PMS5003;50735;52.060;1.248;2024-02-16T12:22:16;3;3;
63305;PMS5003;50735;52.060;1.248;2024-02-16T12:24:49;4;3;
63305;PMS5003;50735;52.060;1.248;2024-02-16T12:27:22;3;3;
63305;PMS5003;50735;52.060;1.248;2024-02-16T12:29:54;4;4;
63305;PMS5003;50735;52.060;1.248;2024-02-16T12:32:25;3;3;
63305;PMS5003;50735;52.060;1.248;2024-02-16T12:34:57;4;3;
63305;PMS5003;50735;52.060;1.248;2024-02-16T12:37:29;7;7;
63305;PMS5003;50735;52.060;1.248;2024-02-16T12:40:01;8;6;
63305;PMS5003;50735;52.060;1.248;2024-02-16T12:42:32;7;7;
63305;PMS5003;50735;52.060;1.248;2024-02-16T12:45:04;5;5;
63305;PMS5003;50735;52.060;1.248;2024-02-16T12:47:37;4;4;
63305;PMS5003;50735;52.060;1.248;2024-02-16T12:50:09;4;4;
63305;PMS5003;50735;52.060;1.248;2024-02-16T12:52:40;8;5;
63305;PMS5003;50735;52.060;1.248;2024-02-16T12:55:12;5;5;
63305;PMS5003;50735;52.060;1.248;2024-02-16T12:57:44;2;1;
63305;PMS5003;50735;52.060;1.248;2024-02-16T13:00:16;4;4;
63305;PMS5003;50735;52.060;1.248;2024-02-16T13:02:48;2;2;
63305;PMS5003;50735;52.060;1.248;2024-02-16T13:05:20;4;3;
63305;PMS5003;50735;52.060;1.248;2024-02-16T13:07:51;6;3;
63305;PMS5003;50735;52.060;1.248;2024-02-16T13:10:23;4;2;
63305;PMS5003;50735;52.060;1.248;2024-02-16T13:12:56;6;5;
63305;PMS5003;50735;52.060;1.248;2024-02-16T13:15:28;2;2;
63305;PMS5003;50735;52.060;1.248;2024-02-16T13:17:59;2;2;
63305;PMS5003;50735;52.060;1.248;2024-02-16T13:20:31;2;2;
63305;PMS5003;50735;52.060;1.248;2024-02-16T13:23:03;2;2;
63305;PMS5003;50735;52.060;1.248;2024-02-16T13:25:35;3;2;
63305;PMS5003;50735;52.060;1.248;2024-02-16T13:28:06;3;3;
63305;PMS5003;50735;52.060;1.248;2024-02-16T13:30:38;3;3;
63305;PMS5003;50735;52.060;1.248;2024-02-16T13:33:10;4;3;
63305;PMS5003;50735;52.060;1.248;2024-02-16T13:35:42;2;2;
63305;PMS5003;50735;52.060;1.248;2024-02-16T13:38:14;5;3;
63305;PMS5003;50735;52.060;1.248;2024-02-16T13:40:45;4;4;
63305;PMS5003;50735;52.060;1.248;2024-02-16T13:43:18;2;1;
63305;PMS5003;50735;52.060;1.248;2024-02-16T13:45:50;4;2;
63305;PMS5003;50735;52.060;1.248;2024-02-16T13:48:23;1;1;
63305;PMS5003;50735;52.060;1.248;2024-02-16T13:50:55;3;3;
63305;PMS5003;50735;52.060;1.248;2024-02-16T13:53:27;3;3;
63305;PMS5003;50735;52.060;1.248;2024-02-16T13:55:59;3;3;
63305;PMS5003;50735;52.060;1.248;2024-02-16T13:58:31;2;2;
63305;PMS5003;50735;52.060;1.248;2024-02-16T14:01:03;4;1;
63305;PMS5003;50735;52.060;1.248;2024-02-16T14:03:36;2;2;
63305;PMS5003;50735;52.060;1.248;2024-02-16T14:06:08;2;2;
63305;PMS5003;50735;52.060;1.248;2024-02-16T14:08:39;6;2;
63305;PMS5003;50735;52.060;1.248;2024-02-16T14:11:11;2;2;
63305;PMS5003;50735;52.060;1.248;2024-02-16T14:13:43;2;2;
63305;PMS5003;50735;52.060;1.248;2024-02-16T14:16:15;2;2;
63305;PMS5003;50735;52.060;1.248;2024-02-16T14:18:46;1;1;
63305;PMS5003;50735;52.060;1.248;2024-02-16T14:21:18;2;2;
63305;PMS5003;50735;52.060;1.248;2024-02-16T14:23:50;2;2;
63305;PMS5003;50735;52.060;1.248;2024-02-16T14:26:22;4;2;
63305;PMS5003;50735;52.060;1.248;2024-02-16T14:28:53;4;3;
63305;PMS5003;50735;52.060;1.248;2024-02-16T14:31:25;4;3;
63305;PMS5003;50735;52.060;1.248;2024-02-16T14:33:57;4;3;
63305;PMS5003;50735;52.060;1.248;2024-02-16T14:36:28;6;5;
63305;PMS5003;50735;52.060;1.248;2024-02-16T14:39:00;4;2;
63305;PMS5003;50735;52.060;1.248;2024-02-16T14:41:32;2;2;
63305;PMS5003;50735;52.060;1.248;2024-02-16T14:44:04;6;3;
63305;PMS5003;50735;52.060;1.248;2024-02-16T14:46:35;2;2;
63305;PMS5003;50735;52.060;1.248;2024-02-16T14:49:07;8;5;
63305;PMS5003;50735;52.060;1.248;2024-02-16T14:51:40;6;3;
63305;PMS5003;50735;52.060;1.248;2024-02-16T14:54:12;7;7;
63305;PMS5003;50735;52.060;1.248;2024-02-16T14:56:43;10;5;
63305;PMS5003;50735;52.060;1.248;2024-02-16T14:59:15;2;2;
63305;PMS5003;50735;52.060;1.248;2024-02-16T15:01:47;3;2;
63305;PMS5003;50735;52.060;1.248;2024-02-16T15:04:19;3;3;
63305;PMS5003;50735;52.060;1.248;2024-02-16T15:06:50;2;2;
63305;PMS5003;50735;52.060;1.248;2024-02-16T15:09:22;7;4;
63305;PMS5003;50735;52.060;1.248;2024-02-16T15:11:54;3;3;
63305;PMS5003;50735;52.060;1.248;2024-02-16T15:14:26;3;3;
63305;PMS5003;50735;52.060;1.248;2024-02-16T15:16:57;2;2;
63305;PMS5003;50735;52.060;1.248;2024-02-16T15:19:29;4;3;
63305;PMS5003;50735;52.060;1.248;2024-02-16T15:22:01;2;2;
63305;PMS5003;50735;52.060;1.248;2024-02-16T15:24:33;4;2;
63305;PMS5003;50735;52.060;1.248;2024-02-16T15:27:04;4;4;
63305;PMS5003;50735;52.060;1.248;2024-02-16T15:29:36;5;3;
63305;PMS5003;50735;52.060;1.248;2024-02-16T15:32:08;2;2;
63305;PMS5003;50735;52.060;1.248;2024-02-16T15:34:40;4;2;
63305;PMS5003;50735;52.060;1.248;2024-02-16T15:37:12;2;2;
63305;PMS5003;50735;52.060;1.248;2024-02-16T15:39:43;8;5;
63305;PMS5003;50735;52.060;1.248;2024-02-16T15:42:18;12;8;
63305;PMS5003;50735;52.060;1.248;2024-02-16T15:44:50;17;14;
63305;PMS5003;50735;52.060;1.248;2024-02-16T15:47:22;11;7;
63305;PMS5003;50735;52.060;1.248;2024-02-16T15:49:54;27;17;
63305;PMS5003;50735;52.060;1.248;2024-02-16T15:52:25;15;12;
63305;PMS5003;50735;52.060;1.248;2024-02-16T15:54:57;10;7;
63305;PMS5003;50735;52.060;1.248;2024-02-16T15:57:29;7;3;
63305;PMS5003;50735;52.060;1.248;2024-02-16T16:00:01;3;3;
63305;PMS5003;50735;52.060;1.248;2024-02-16T16:02:34;2;1;
63305;PMS5003;50735;52.060;1.248;2024-02-16T16:05:06;4;3;
63305;PMS5003;50735;52.060;1.248;2024-02-16T16:07:38;4;3;
63305;PMS5003;50735;52.060;1.248;2024-02-16T16:10:11;5;4;
63305;PMS5003;50735;52.060;1.248;2024-02-16T16:12:45;4;1;
63305;PMS5003;50735;52.060;1.248;2024-02-16T16:15:17;5;2;
63305;PMS5003;50735;52.060;1.248;2024-02-16T16:17:49;1;1;
63305;PMS5003;50735;52.060;1.248;2024-02-16T16:20:21;1;1;
63305;PMS5003;50735;52.060;1.248;2024-02-16T16:22:53;7;2;
63305;PMS5003;50735;52.060;1.248;2024-02-16T16:25:25;2;2;
63305;PMS5003;50735;52.060;1.248;2024-02-16T16:27:56;2;2;
63305;PMS5003;50735;52.060;1.248;2024-02-16T16:30:28;2;2;
63305;PMS5003;50735;52.060;1.248;2024-02-16T16:33:00;1;1;
63305;PMS5003;50735;52.060;1.248;2024-02-16T16:35:32;3;3;
63305;PMS5003;50735;52.060;1.248;2024-02-16T16:38:04;7;7;
63305;PMS5003;50735;52.060;1.248;2024-02-16T16:40:37;5;3;
63305;PMS5003;50735;52.060;1.248;2024-02-16T16:43:08;4;2;
63305;PMS5003;50735;52.060;1.248;2024-02-16T16:45:40;62;43;
63305;PMS5003;50735;52.060;1.248;2024-02-16T16:48:12;95;76;
63305;PMS5003;50735;52.060;1.248;2024-02-16T16:50:44;5;5;
63305;PMS5003;50735;52.060;1.248;2024-02-16T16:53:16;40;34;
63305;PMS5003;50735;52.060;1.248;2024-02-16T16:55:48;2;2;
63305;PMS5003;50735;52.060;1.248;2024-02-16T16:58:20;3;3;
63305;PMS5003;50735;52.060;1.248;2024-02-16T17:00:52;47;33;
63305;PMS5003;50735;52.060;1.248;2024-02-16T17:03:24;7;7;
63305;PMS5003;50735;52.060;1.248;2024-02-16T17:05:56;3;3;
63305;PMS5003;50735;52.060;1.248;2024-02-16T17:08:28;1;1;